Time;durP1;ratioP1;P1;durP2;ratioP2;P2;SDS_P1;SDS_P2;PMS_P1;PMS_P2;Temp;Humidity;BMP_temperature;BMP_pressure;BME280_temperature;BME280_humidity;BME280_pressure;Samples;Min_cycle;Max_cycle;Signal;HPM_P1;HPM_P2
2023/10/18 00:00:57;;;;;;;16.53;9.53;;;;;;;7.02;90.00;101246.19;5016897;28;20026;-64
2023/10/18 00:03:26;;;;;;;12.27;9.23;;;;;;;7.00;90.22;101248.13;5028429;28;20032;-64
2023/10/18 00:05:52;;;;;;;12.23;9.35;;;;;;;7.01;89.82;101251.59;5029832;28;20037;-64
2023/10/18 00:08:17;;;;;;;11.60;8.98;;;;;;;6.92;90.04;101242.69;5019920;28;20040;-64
2023/10/18 00:10:43;;;;;;;13.03;9.43;;;;;;;7.00;89.86;101253.41;5023961;28;20033;-65
2023/10/18 00:13:08;;;;;;;13.50;9.13;;;;;;;6.98;90.10;101252.72;5019488;28;20384;-65
2023/10/18 00:15:34;;;;;;;10.67;8.80;;;;;;;6.97;90.02;101248.41;5019999;28;20036;-64
2023/10/18 00:17:59;;;;;;;12.53;9.20;;;;;;;6.97;90.13;101245.78;5023098;28;20029;-64
2023/10/18 00:20:28;;;;;;;17.37;9.73;;;;;;;6.98;90.10;101243.97;5022093;28;20025;-65
2023/10/18 00:22:54;;;;;;;18.50;9.40;;;;;;;6.95;89.99;101245.06;5030861;28;20430;-65
2023/10/18 00:25:20;;;;;;;13.37;9.17;;;;;;;6.93;90.00;101236.44;5019203;28;20029;-64
2023/10/18 00:27:45;;;;;;;14.20;9.60;;;;;;;6.91;90.06;101235.72;5017910;28;20026;-64
2023/10/18 00:30:11;;;;;;;12.23;9.23;;;;;;;6.90;90.09;101234.06;5023143;28;20037;-64
2023/10/18 00:32:37;;;;;;;16.73;9.23;;;;;;;6.88;89.96;101229.91;5023279;28;20044;-65
2023/10/18 00:35:12;;;;;;;12.87;9.63;;;;;;;6.86;90.04;101235.31;5024387;28;20039;-65
2023/10/18 00:37:41;;;;;;;12.53;9.40;;;;;;;6.85;89.84;101231.00;5015982;28;20117;-64
2023/10/18 00:40:09;;;;;;;14.93;9.70;;;;;;;6.85;89.94;101231.00;5020337;28;20106;-64
2023/10/18 00:42:35;;;;;;;14.07;9.40;;;;;;;6.84;89.95;101234.63;5025447;28;20029;-64
2023/10/18 00:45:11;;;;;;;11.57;9.60;;;;;;;6.81;90.09;101225.16;5017663;28;20030;-64
2023/10/18 00:47:37;;;;;;;12.83;10.00;;;;;;;6.82;90.30;101234.75;5020471;28;20503;-65
2023/10/18 00:50:04;;;;;;;13.67;9.63;;;;;;;6.79;90.13;101242.13;5017433;28;20037;-64
2023/10/18 00:52:30;;;;;;;11.40;9.00;;;;;;;6.81;90.10;101234.91;5028485;28;20036;-64
2023/10/18 00:54:55;;;;;;;13.83;9.57;;;;;;;6.78;90.40;101237.81;5022288;28;20025;-64
2023/10/18 00:57:24;;;;;;;12.47;8.97;;;;;;;6.77;90.42;101229.06;5017933;28;20389;-65
2023/10/18 00:59:52;;;;;;;13.30;9.93;;;;;;;6.77;90.03;101226.41;5023688;28;20650;-64
2023/10/18 01:02:19;;;;;;;14.97;9.30;;;;;;;6.78;90.20;101214.88;5017622;28;20036;-64
2023/10/18 01:04:46;;;;;;;15.40;9.40;;;;;;;6.79;90.11;101215.72;5028471;28;20033;-65
2023/10/18 01:07:13;;;;;;;11.53;9.30;;;;;;;6.78;89.98;101214.06;5015564;28;20535;-65
2023/10/18 01:09:44;;;;;;;12.70;9.27;;;;;;;6.72;90.18;101202.25;5019360;28;20116;-64
2023/10/18 01:12:10;;;;;;;11.57;9.37;;;;;;;6.79;89.75;101202.53;5015195;28;20026;-64
2023/10/18 01:14:36;;;;;;;15.43;9.55;;;;;;;6.77;90.02;101200.03;5024052;28;20045;-64
2023/10/18 01:17:05;;;;;;;12.07;9.40;;;;;;;6.76;89.76;101198.34;5018402;28;20411;-64
2023/10/18 01:19:30;;;;;;;13.07;9.25;;;;;;;6.75;89.92;101185.28;5020375;28;20028;-64
2023/10/18 01:21:56;;;;;;;13.30;9.30;;;;;;;6.72;90.05;101182.94;5016455;28;20018;-64
2023/10/18 01:24:21;;;;;;;13.17;9.80;;;;;;;6.72;89.62;101175.03;5023162;28;20171;-64
2023/10/18 01:26:47;;;;;;;13.93;9.83;;;;;;;6.71;89.64;101176.00;5017025;28;20030;-64
2023/10/18 01:29:13;;;;;;;13.93;9.63;;;;;;;6.71;89.82;101186.53;5016306;28;20029;-64
2023/10/18 01:31:45;;;;;;;12.53;9.20;;;;;;;6.66;89.84;101183.50;5029439;28;20061;-64
2023/10/18 01:34:11;;;;;;;14.63;9.27;;;;;;;6.68;90.17;101186.81;5025790;28;20037;-64
2023/10/18 01:36:39;;;;;;;13.63;9.33;;;;;;;6.67;90.12;101175.44;5018579;28;20112;-64
2023/10/18 01:39:18;;;;;;;14.33;9.50;;;;;;;6.65;90.09;101172.09;5024963;28;20029;-64
2023/10/18 01:41:44;;;;;;;14.85;9.73;;;;;;;6.65;89.70;101163.31;5021006;28;20082;-64
2023/10/18 01:44:10;;;;;;;12.87;9.07;;;;;;;6.64;89.57;101156.38;5019113;28;20079;-64
2023/10/18 01:46:43;;;;;;;12.07;8.60;;;;;;;6.62;89.79;101153.03;5026904;28;20025;-64
2023/10/18 01:49:13;;;;;;;13.03;9.60;;;;;;;6.60;89.91;101141.78;5020616;28;20028;-64
2023/10/18 01:51:42;;;;;;;12.73;8.97;;;;;;;6.59;89.98;101135.69;5019567;28;20040;-64
2023/10/18 01:54:12;;;;;;;13.32;9.32;;;;;;;6.56;89.76;101130.69;5016264;28;20025;-64
2023/10/18 01:56:38;;;;;;;13.70;8.70;;;;;;;6.57;90.22;101128.88;5027714;28;20072;-64
2023/10/18 01:59:08;;;;;;;12.57;9.30;;;;;;;6.57;89.72;101142.91;5025810;28;20050;-64
2023/10/18 02:01:34;;;;;;;;;;;;;;;6.60;89.98;101128.59;5025853;28;20120;-64
2023/10/18 02:04:00;;;;;;;12.87;9.10;;;;;;;6.53;89.56;101121.25;5031888;28;19913;-64
2023/10/18 02:06:27;;;;;;;15.33;9.57;;;;;;;6.52;89.80;101127.50;5027299;28;20028;-64
2023/10/18 02:08:52;;;;;;;13.50;9.23;;;;;;;6.50;89.58;101124.16;5025782;28;20029;-64
2023/10/18 02:11:18;;;;;;;16.53;8.90;;;;;;;6.49;89.89;101111.09;5021953;28;20037;-64
2023/10/18 02:13:43;;;;;;;13.83;9.23;;;;;;;6.49;89.59;101114.56;5021004;28;20052;-64
2023/10/18 02:16:19;;;;;;;11.47;8.80;;;;;;;6.46;90.02;101106.94;5020987;28;20547;-64
2023/10/18 02:18:48;;;;;;;11.07;8.80;;;;;;;6.45;90.04;101110.53;5017149;28;20033;-65
2023/10/18 02:21:14;;;;;;;12.18;8.75;;;;;;;6.41;89.96;101101.25;5019010;28;20021;-65
2023/10/18 02:23:39;;;;;;;11.80;9.47;;;;;;;6.42;89.90;101102.06;5021998;28;20033;-64
2023/10/18 02:26:30;;;;;;;12.40;9.27;;;;;;;6.40;90.10;101099.56;5018568;28;20021;-64
2023/10/18 02:28:53;;;;;;;15.40;9.20;;;;;;;6.39;89.61;101090.00;5016128;28;20748;-64
2023/10/18 02:31:21;;;;;;;12.33;9.47;;;;;;;6.38;89.94;101083.06;5026795;28;20025;-65
2023/10/18 02:33:53;;;;;;;12.47;9.40;;;;;;;6.39;90.12;101087.34;5009207;28;20541;-64
2023/10/18 02:36:21;;;;;;;12.53;9.30;;;;;;;6.39;89.69;101097.06;5011939;28;20025;-64
2023/10/18 02:38:50;;;;;;;12.67;9.30;;;;;;;6.37;89.94;101081.38;5024573;28;20026;-64
2023/10/18 02:41:20;;;;;;;15.80;9.50;;;;;;;6.38;89.74;101084.88;5013463;28;20760;-64
2023/10/18 02:43:46;;;;;;;13.30;8.63;;;;;;;6.37;89.80;101080.56;5021233;28;20025;-64
2023/10/18 02:46:15;;;;;;;12.57;8.57;;;;;;;6.40;89.51;101077.63;5037763;28;20033;-64
2023/10/18 02:48:41;;;;;;;14.00;9.03;;;;;;;6.39;89.31;101074.16;5019959;28;20069;-64
2023/10/18 02:51:06;;;;;;;12.73;9.17;;;;;;;6.34;89.23;101065.81;5026008;28;20442;-65
2023/10/18 02:53:33;;;;;;;15.60;9.30;;;;;;;6.38;89.47;101075.16;5032175;28;20274;-64
2023/10/18 02:55:59;;;;;;;13.30;9.03;;;;;;;6.40;89.06;101078.47;5022895;28;20026;-64
2023/10/18 02:58:33;;;;;;;11.33;8.80;;;;;;;6.40;88.85;101070.56;5015488;28;20026;-64
2023/10/18 03:01:05;;;;;;;12.70;8.80;;;;;;;6.41;88.69;101060.84;5014768;28;20022;-64
2023/10/18 03:03:31;;;;;;;14.40;8.60;;;;;;;6.41;88.76;101053.75;5023146;28;20090;-64
2023/10/18 03:05:59;;;;;;;11.70;8.30;;;;;;;6.40;88.88;101041.53;5023632;28;20434;-64
2023/10/18 03:08:24;;;;;;;11.63;9.00;;;;;;;6.41;88.68;101051.13;5021438;28;20025;-64
2023/10/18 03:10:51;;;;;;;12.00;8.87;;;;;;;6.41;88.31;101052.94;5017357;28;20095;-64
2023/10/18 03:13:18;;;;;;;11.63;7.93;;;;;;;6.40;88.24;101048.63;5021555;28;20172;-64
2023/10/18 03:16:04;;;;;;;11.77;8.40;;;;;;;6.39;88.58;101045.16;5010271;28;20030;-64
2023/10/18 03:18:30;;;;;;;13.03;8.30;;;;;;;6.35;88.36;101027.91;5023287;28;20047;-64
2023/10/18 03:20:57;;;;;;;12.70;8.80;;;;;;;6.39;88.09;101049.59;5020296;28;20013;-64
2023/10/18 03:23:26;;;;;;;14.27;8.30;;;;;;;6.37;87.85;101036.56;5016086;28;20387;-64
2023/10/18 03:26:08;;;;;;;11.43;8.63;;;;;;;6.37;87.96;101026.00;5028217;28;20156;-64
2023/10/18 03:28:40;;;;;;;11.00;8.77;;;;;;;6.38;87.89;101032.09;5016837;28;20033;-64
2023/10/18 03:34:19;;;;;;;13.23;8.30;;;;;;;6.38;88.03;101030.31;5024573;28;20044;-64
2023/10/18 03:36:54;;;;;;;11.13;8.47;;;;;;;6.37;87.93;101026.00;5023131;28;20026;-64
2023/10/18 03:39:25;;;;;;;13.63;8.70;;;;;;;6.38;87.64;101022.38;5031021;28;20094;-64
2023/10/18 03:41:51;;;;;;;12.50;8.37;;;;;;;6.32;87.86;101012.38;5020398;28;20116;-64
2023/10/18 03:44:32;;;;;;;10.83;8.20;;;;;;;6.39;87.85;101008.22;5021058;28;20108;-64
2023/10/18 03:47:04;;;;;;;11.40;8.40;;;;;;;6.37;88.07;101018.09;5030661;28;20021;-64
2023/10/18 03:52:06;;;;;;;13.07;8.43;;;;;;;6.39;87.52;100996.84;5018966;28;20671;-64
2023/10/18 03:54:44;;;;;;;11.97;8.03;;;;;;;6.39;87.65;100988.94;5029706;28;20021;-64
2023/10/18 03:57:15;;;;;;;11.50;8.07;;;;;;;6.38;87.65;100990.75;5017104;28;20605;-64
2023/10/18 03:59:44;;;;;;;10.13;8.03;;;;;;;6.39;87.16;100988.94;5028846;28;20040;-64
2023/10/18 04:02:21;;;;;;;10.73;8.25;;;;;;;6.39;87.34;100986.28;5010568;28;20029;-64
2023/10/18 04:04:48;;;;;;;12.20;8.27;;;;;;;6.39;87.05;100991.56;5023267;28;21192;-64
2023/10/18 04:07:16;;;;;;;13.07;8.20;;;;;;;6.39;87.37;100979.22;5028615;28;20402;-64
2023/10/18 04:10:12;;;;;;;10.23;8.33;;;;;;;6.40;87.39;100978.25;5011790;28;20021;-64
2023/10/18 04:12:32;;;;;;;15.47;8.60;;;;;;;6.41;86.96;100968.53;5014150;28;20117;-64
2023/10/18 04:15:01;;;;;;;11.27;7.93;;;;;;;6.41;87.29;100964.06;5021043;28;20716;-64
2023/10/18 04:17:42;;;;;;;12.45;8.52;;;;;;;6.42;86.89;100962.28;5022888;28;20048;-64
2023/10/18 04:22:42;;;;;;;11.03;8.17;;;;;;;6.41;86.93;100945.63;5013833;28;20034;-63
2023/10/18 04:25:25;;;;;;;11.20;7.73;;;;;;;6.43;87.00;100956.03;5027919;28;20048;-64
2023/10/18 04:27:58;;;;;;;10.50;7.73;;;;;;;6.41;86.91;100950.88;5011706;28;20022;-64
2023/10/18 04:30:30;;;;;;;12.03;8.50;;;;;;;6.35;86.76;100929.50;5011427;28;20033;-64
2023/10/18 04:33:12;;;;;;;10.10;8.00;;;;;;;6.44;86.99;100942.69;5014416;28;20024;-64
2023/10/18 04:35:44;;;;;;;14.10;8.43;;;;;;;6.45;86.43;100941.72;5021474;28;20488;-63
2023/10/18 04:38:21;;;;;;;11.53;8.80;;;;;;;6.45;86.50;100920.59;5019836;28;20025;-64
2023/10/18 04:41:05;;;;;;;10.53;8.53;;;;;;;6.48;86.73;100936.16;5017366;28;20057;-64
2023/10/18 04:43:33;;;;;;;14.30;7.97;;;;;;;6.46;86.18;100930.19;5020895;28;20033;-64
2023/10/18 04:46:15;;;;;;;9.63;7.87;;;;;;;6.46;86.69;100924.09;5022774;28;20064;-64
2023/10/18 04:48:59;;;;;;;11.97;8.30;;;;;;;6.42;86.67;100920.06;5029064;28;20017;-64
2023/10/18 04:51:27;;;;;;;12.13;8.73;;;;;;;6.44;86.67;100918.94;5021409;28;20029;-64
2023/10/18 04:54:10;;;;;;;13.43;9.40;;;;;;;6.41;86.33;100918.41;5012180;28;20061;-64
2023/10/18 04:56:38;;;;;;;12.53;8.00;;;;;;;6.42;86.25;100917.44;5011773;28;20022;-64
2023/10/18 04:59:26;;;;;;;11.03;8.43;;;;;;;6.42;86.42;100912.97;5008915;28;20072;-64
2023/10/18 05:04:24;;;;;;;11.20;8.57;;;;;;;6.43;86.50;100901.47;5025838;28;20053;-64
2023/10/18 05:06:54;;;;;;;13.10;8.57;;;;;;;6.41;86.41;100900.78;5019743;28;20021;-64
2023/10/18 05:09:43;;;;;;;12.37;8.30;;;;;;;6.40;86.10;100899.09;5012533;28;20021;-64
2023/10/18 05:14:42;;;;;;;14.13;8.63;;;;;;;6.38;86.44;100906.34;5012074;28;20033;-65
2023/10/18 05:17:18;;;;;;;16.40;10.80;;;;;;;6.39;86.33;100913.28;5016513;28;20021;-64
2023/10/18 05:19:47;;;;;;;15.37;9.47;;;;;;;6.40;86.53;100907.03;5015683;28;20044;-64
2023/10/18 05:22:24;;;;;;;12.95;9.70;;;;;;;6.35;86.33;100900.47;5010012;28;20021;-64
2023/10/18 05:25:22;;;;;;;19.00;11.97;;;;;;;6.38;86.43;100895.78;5012239;28;20391;-64
2023/10/18 05:28:00;;;;;;;23.17;12.50;;;;;;;6.38;86.43;100900.22;5027876;28;20040;-64
2023/10/18 05:33:47;;;;;;;17.33;8.73;;;;;;;6.37;86.38;100894.13;5016388;28;20049;-64
2023/10/18 05:43:52;;;;;;;21.03;11.90;;;;;;;6.34;86.23;100881.19;5019544;28;20029;-64
2023/10/18 05:46:20;;;;;;;14.37;10.87;;;;;;;6.33;86.03;100876.88;5022272;28;20021;-64
2023/10/18 05:48:45;;;;;;;11.90;8.23;;;;;;;6.33;86.09;100876.06;5017800;28;20061;-64
2023/10/18 05:51:32;;;;;;;13.23;8.60;;;;;;;6.34;85.94;100869.81;5018037;28;20053;-64
2023/10/18 05:54:02;;;;;;;12.53;8.17;;;;;;;6.32;86.12;100863.84;5015050;28;20131;-64
2023/10/18 05:56:31;;;;;;;13.43;8.47;;;;;;;6.30;85.88;100865.78;5021485;28;20022;-64
2023/10/18 06:01:49;;;;;;;11.80;8.30;;;;;;;6.29;85.79;100859.69;5017336;28;20094;-65
2023/10/18 06:04:23;;;;;;;11.90;8.00;;;;;;;6.29;85.82;100867.59;5015713;28;20025;-64
2023/10/18 06:06:49;;;;;;;11.37;8.63;;;;;;;6.27;86.04;100861.63;5022560;28;20367;-64
2023/10/18 06:09:26;;;;;;;11.50;8.33;;;;;;;6.25;85.83;100853.03;5035664;28;20600;-64
2023/10/18 06:11:53;;;;;;;12.70;7.80;;;;;;;6.26;85.79;100852.06;5017119;28;20033;-64
2023/10/18 06:14:18;;;;;;;11.57;8.17;;;;;;;6.27;85.59;100847.63;5027558;28;20032;-64
2023/10/18 06:16:51;;;;;;;11.43;7.70;;;;;;;6.27;86.10;100851.09;5014026;28;20021;-64
2023/10/18 06:19:22;;;;;;;17.27;8.47;;;;;;;6.29;86.09;100845.66;5010206;28;20444;-64
2023/10/18 06:21:57;;;;;;;13.47;8.73;;;;;;;6.29;85.95;100843.03;5012584;28;20030;-64
2023/10/18 06:24:24;;;;;;;15.73;8.73;;;;;;;6.32;86.03;100842.75;5013538;28;20116;-65
2023/10/18 06:26:52;;;;;;;11.60;8.33;;;;;;;6.32;85.82;100834.84;5013941;28;20040;-64
2023/10/18 06:29:22;;;;;;;11.77;8.60;;;;;;;6.28;85.30;100836.94;5013647;28;20033;-64
2023/10/18 06:31:49;;;;;;;10.57;8.13;;;;;;;6.32;85.52;100837.47;5021639;28;20437;-64
2023/10/18 06:34:17;;;;;;;11.47;8.50;;;;;;;6.28;85.53;100825.56;5018798;28;20099;-65
2023/10/18 06:36:44;;;;;;;11.75;8.23;;;;;;;6.30;85.42;100824.44;5014788;28;20559;-64
2023/10/18 06:39:24;;;;;;;11.97;8.23;;;;;;;6.31;85.62;100818.19;5019098;28;20076;-64
2023/10/18 06:41:50;;;;;;;13.93;8.57;;;;;;;6.31;85.62;100807.63;5017139;28;20610;-64
2023/10/18 06:44:18;;;;;;;15.27;7.83;;;;;;;6.32;85.49;100805.81;5018003;28;20076;-65
2023/10/18 06:46:47;;;;;;;12.47;8.10;;;;;;;6.32;85.20;100796.09;5012616;28;20037;-64
2023/10/18 06:49:12;;;;;;;11.63;8.07;;;;;;;6.33;85.20;100800.41;5022699;28;20419;-64
2023/10/18 06:51:41;;;;;;;11.53;8.23;;;;;;;6.36;84.98;100802.78;5019144;28;20108;-64
2023/10/18 06:54:13;;;;;;;12.47;7.67;;;;;;;6.38;85.16;100787.63;5019216;28;20026;-64
2023/10/18 06:56:45;;;;;;;10.90;7.87;;;;;;;6.38;85.00;100800.00;5024233;28;20030;-64
2023/10/18 06:59:11;;;;;;;11.43;7.80;;;;;;;6.39;84.96;100799.03;5023835;28;20076;-64
2023/10/18 07:01:54;;;;;;;14.57;7.33;;;;;;;6.40;85.07;100788.31;5007956;28;20037;-64
2023/10/18 07:04:29;;;;;;;13.20;7.80;;;;;;;6.42;84.76;100775.81;5011543;28;20042;-65
2023/10/18 07:06:55;;;;;;;13.83;7.77;;;;;;;6.43;84.82;100780.13;5023128;28;20372;-64
2023/10/18 07:09:26;;;;;;;12.17;8.13;;;;;;;6.45;84.88;100786.06;5012711;28;20100;-64
2023/10/18 07:11:53;;;;;;;12.23;7.77;;;;;;;6.46;84.92;100786.91;5019818;28;20032;-64
2023/10/18 07:14:20;;;;;;;10.97;7.50;;;;;;;6.50;84.83;100780.34;5020641;28;20104;-64
2023/10/18 07:16:48;;;;;;;13.57;8.00;;;;;;;6.49;84.64;100786.63;5017000;28;20022;-64
2023/10/18 07:19:26;;;;;;;12.13;7.90;;;;;;;6.54;84.91;100776.44;5017923;28;20037;-64
2023/10/18 07:21:53;;;;;;;10.27;7.35;;;;;;;6.59;84.31;100774.19;5023331;28;20033;-65
2023/10/18 07:24:20;;;;;;;14.33;7.87;;;;;;;6.61;84.61;100769.59;5023685;28;20026;-65
2023/10/18 07:26:46;;;;;;;11.13;7.90;;;;;;;6.64;84.39;100776.41;5013807;28;20107;-65
2023/10/18 07:29:16;;;;;;;12.83;7.70;;;;;;;6.66;84.48;100779.75;5017080;28;20505;-65
2023/10/18 07:31:47;;;;;;;11.75;8.10;;;;;;;6.67;84.04;100771.69;5025192;28;20033;-65
2023/10/18 07:34:28;;;;;;;11.73;8.10;;;;;;;6.70;83.90;100767.91;5029261;28;20033;-65
2023/10/18 07:36:54;;;;;;;15.13;7.83;;;;;;;6.73;84.14;100762.34;5015972;28;20528;-65
2023/10/18 07:39:24;;;;;;;10.80;6.93;;;;;;;6.77;83.83;100759.25;5017060;28;20033;-65
2023/10/18 07:41:50;;;;;;;13.30;7.97;;;;;;;6.79;83.75;100743.25;5013133;28;20472;-65
2023/10/18 07:44:15;;;;;;;12.17;7.97;;;;;;;6.77;83.52;100742.59;5019933;28;20028;-65
2023/10/18 07:46:41;;;;;;;11.20;7.70;;;;;;;6.86;83.21;100756.69;5027040;28;20041;-65
2023/10/18 07:49:11;;;;;;;12.37;7.40;;;;;;;6.86;83.18;100746.97;5023380;28;20113;-65
2023/10/18 07:51:48;;;;;;;11.20;7.13;;;;;;;6.89;83.28;100743.19;5033596;28;20021;-65
2023/10/18 07:54:14;;;;;;;10.93;7.30;;;;;;;6.92;83.37;100730.53;5024721;28;20027;-65
2023/10/18 07:56:50;;;;;;;10.73;7.30;;;;;;;6.96;83.30;100731.91;5019724;28;20033;-65
2023/10/18 07:59:29;;;;;;;14.07;8.47;;;;;;;7.00;83.03;100735.91;5020258;28;20028;-65
2023/10/18 08:02:12;;;;;;;15.70;8.85;;;;;;;7.03;83.10;100725.03;5022424;28;20445;-64
2023/10/18 08:04:38;;;;;;;13.97;8.60;;;;;;;7.08;82.57;100730.69;5026229;28;20017;-65
2023/10/18 08:07:04;;;;;;;14.17;7.70;;;;;;;7.10;82.80;100734.00;5027956;28;20032;-65
2023/10/18 08:09:30;;;;;;;12.30;7.70;;;;;;;7.14;82.41;100735.38;5023641;28;20013;-65
2023/10/18 08:11:56;;;;;;;11.83;8.37;;;;;;;7.20;82.51;100739.22;5029247;28;20606;-65
2023/10/18 08:14:24;;;;;;;10.65;7.72;;;;;;;7.25;82.56;100726.41;5031905;28;20026;-65
2023/10/18 08:16:56;;;;;;;10.20;7.40;;;;;;;7.30;81.82;100728.59;5022504;28;20018;-65
2023/10/18 08:19:24;;;;;;;12.25;7.80;;;;;;;7.30;82.06;100721.50;5021684;28;20025;-65
2023/10/18 08:24:35;;;;;;;11.70;7.67;;;;;;;7.41;81.52;100721.25;5024803;28;20754;-65
2023/10/18 08:27:10;;;;;;;11.27;7.88;;;;;;;7.47;81.66;100723.28;5014732;28;20052;-65
2023/10/18 08:29:36;;;;;;;11.60;7.60;;;;;;;7.52;81.75;100719.34;5018255;28;20052;-65
2023/10/18 08:32:14;;;;;;;11.10;7.18;;;;;;;7.57;81.27;100717.91;5016348;28;20479;-65
2023/10/18 08:34:41;;;;;;;14.25;8.05;;;;;;;7.66;81.61;100713.50;5021266;28;20055;-65
2023/10/18 08:37:06;;;;;;;12.98;7.80;;;;;;;7.71;81.15;100714.69;5023050;28;20022;-65
2023/10/18 08:39:32;;;;;;;10.48;7.32;;;;;;;7.77;81.22;100705.31;5033835;28;21080;-64
2023/10/18 08:42:12;;;;;;;12.38;7.00;;;;;;;7.84;80.88;100703.72;5010420;28;20025;-65
2023/10/18 08:44:39;;;;;;;12.60;7.85;;;;;;;7.91;80.79;100699.47;5023004;28;20502;-65
2023/10/18 08:49:43;;;;;;;13.15;7.60;;;;;;;7.98;79.88;100705.78;5021001;28;20030;-65
2023/10/18 08:52:10;;;;;;;10.07;6.82;;;;;;;8.03;80.03;100694.72;5024630;28;20049;-65
2023/10/18 08:54:39;;;;;;;12.02;7.10;;;;;;;8.10;79.56;100693.13;5015810;28;20397;-65
2023/10/18 08:57:08;;;;;;;13.95;8.10;;;;;;;8.16;79.68;100678.44;5018595;28;20033;-65
2023/10/18 08:59:42;;;;;;;10.93;7.68;;;;;;;8.20;79.45;100680.59;5016401;28;20028;-65
2023/10/18 09:02:17;;;;;;;14.50;7.95;;;;;;;8.24;79.88;100676.63;5031027;28;20022;-65
2023/10/18 09:04:54;;;;;;;12.60;7.50;;;;;;;8.30;79.71;100673.34;5029896;28;20082;-65
2023/10/18 09:07:22;;;;;;;11.65;7.55;;;;;;;8.38;79.86;100648.75;5023176;28;20112;-65
2023/10/18 09:18:13;;;;;;;11.77;7.30;;;;;;;8.61;78.49;100649.00;5067035;28;20098;-65
2023/10/18 09:20:39;;;;;;;12.82;7.68;;;;;;;8.65;78.87;100631.78;5066272;28;20036;-65
2023/10/18 09:23:05;;;;;;;12.95;7.65;;;;;;;8.66;78.22;100649.31;5041690;28;20029;-65
2023/10/18 09:25:49;;;;;;;12.48;8.23;;;;;;;8.72;78.68;100646.06;5016576;28;20076;-65
2023/10/18 09:28:21;;;;;;;10.95;7.78;;;;;;;8.77;78.08;100638.44;5018699;28;20026;-65
2023/10/18 09:30:46;;;;;;;12.52;7.75;;;;;;;8.86;78.24;100640.09;5016377;28;20029;-65
2023/10/18 09:33:13;;;;;;;12.00;7.78;;;;;;;8.85;78.17;100632.31;5019342;28;20029;-65
2023/10/18 09:35:47;;;;;;;11.32;7.30;;;;;;;8.92;78.35;100639.44;5019230;28;20113;-64
2023/10/18 09:38:12;;;;;;;14.13;8.13;;;;;;;8.99;78.29;100639.63;5025409;28;20052;-65
2023/10/18 09:40:40;;;;;;;12.60;7.97;;;;;;;9.08;78.06;100619.25;5018316;28;20423;-65
2023/10/18 09:43:06;;;;;;;13.98;8.43;;;;;;;9.15;78.20;100628.19;5012509;28;20026;-65
2023/10/18 09:45:32;;;;;;;12.57;7.90;;;;;;;9.20;77.88;100609.97;5017312;28;20032;-65
2023/10/18 09:47:59;;;;;;;12.55;7.90;;;;;;;9.23;77.89;100620.22;5024216;28;20510;-65
2023/10/18 09:50:28;;;;;;;11.90;8.13;;;;;;;9.28;77.81;100602.03;5023610;28;20511;-65
2023/10/18 09:52:59;;;;;;;12.73;8.38;;;;;;;9.42;78.12;100597.84;5017758;28;20022;-65
2023/10/18 09:55:28;;;;;;;16.75;8.07;;;;;;;9.48;77.28;100591.84;5039474;28;20037;-65
2023/10/18 09:58:04;;;;;;;14.02;8.00;;;;;;;9.56;77.28;100598.00;5020160;28;20068;-65
2023/10/18 10:00:34;;;;;;;12.13;7.45;;;;;;;9.63;76.93;100595.47;5023406;28;20032;-66
2023/10/18 10:02:59;;;;;;;;;;;;;;;9.73;76.95;100582.84;5020220;28;20479;-65
2023/10/18 10:05:25;;;;;;;10.07;7.55;;;;;;;9.79;76.96;100576.84;5015501;28;19928;-65
2023/10/18 10:07:57;;;;;;;12.60;8.32;;;;;;;9.89;76.56;100566.06;5021646;28;20036;-65
2023/10/18 10:10:43;;;;;;;11.13;8.40;;;;;;;9.97;76.18;100567.84;5025647;28;20032;-65
2023/10/18 10:13:18;;;;;;;14.70;8.77;;;;;;;10.07;76.32;100561.31;5017872;28;20037;-66
2023/10/18 10:15:48;;;;;;;11.95;7.55;;;;;;;10.13;76.28;100555.31;5022815;28;20028;-65
2023/10/18 10:18:16;;;;;;;12.65;7.68;;;;;;;10.18;75.92;100547.66;5014712;28;20144;-65
2023/10/18 10:20:42;;;;;;;13.38;7.93;;;;;;;10.24;75.49;100554.13;5017620;28;20116;-65
2023/10/18 10:23:15;;;;;;;12.63;8.07;;;;;;;10.28;75.85;100543.97;5028998;28;20025;-65
2023/10/18 10:25:52;;;;;;;12.38;7.95;;;;;;;10.34;74.99;100530.81;5011364;28;20763;-67
2023/10/18 10:31:58;;;;;;;13.90;8.02;;;;;;;10.49;74.51;100518.44;5010779;28;20053;-66
2023/10/18 10:34:28;;;;;;;13.82;8.00;;;;;;;10.55;74.63;100504.44;5016216;28;20033;-66
2023/10/18 10:37:09;;;;;;;18.25;10.00;;;;;;;10.63;74.91;100478.81;5019617;28;20056;-66
2023/10/18 10:39:44;;;;;;;11.50;7.88;;;;;;;10.67;74.22;100477.47;5021527;28;20514;-65
2023/10/18 10:42:27;;;;;;;15.68;8.80;;;;;;;10.69;73.68;100470.97;5015501;28;20661;-65
2023/10/18 10:45:09;;;;;;;15.50;8.73;;;;;;;10.73;73.56;100472.28;5020238;28;20091;-65
2023/10/18 10:47:42;;;;;;;15.85;10.23;;;;;;;10.81;74.39;100458.91;5020963;28;20063;-65
2023/10/18 10:50:08;;;;;;;12.32;8.60;;;;;;;10.88;74.07;100450.19;5020201;28;20096;-66
2023/10/18 10:52:35;;;;;;;13.93;8.32;;;;;;;10.93;73.67;100439.84;5023431;28;20032;-65
2023/10/18 10:55:18;;;;;;;14.25;8.27;;;;;;;10.98;73.62;100453.41;5020295;28;20036;-65
2023/10/18 10:57:45;;;;;;;10.45;7.82;;;;;;;11.03;73.58;100443.91;5011321;28;20404;-65
2023/10/18 11:03:06;;;;;;;12.95;8.15;;;;;;;11.15;73.20;100429.13;5026000;28;20119;-65
2023/10/18 11:05:36;;;;;;;13.80;8.10;;;;;;;11.19;72.47;100437.56;5025075;28;20548;-65
2023/10/18 11:08:01;;;;;;;11.73;7.78;;;;;;;11.20;72.81;100430.41;5019485;28;20117;-65
2023/10/18 11:10:28;;;;;;;10.98;8.30;;;;;;;11.26;72.56;100419.03;5015240;28;20104;-66
2023/10/18 11:12:53;;;;;;;13.57;8.23;;;;;;;11.32;72.58;100431.59;5015295;28;20121;-66
2023/10/18 11:15:24;;;;;;;11.90;7.82;;;;;;;11.39;72.64;100427.19;5011787;28;20026;-66
2023/10/18 11:17:52;;;;;;;9.93;7.95;;;;;;;11.47;73.04;100406.63;5011371;28;20104;-66
2023/10/18 11:20:29;;;;;;;10.43;7.60;;;;;;;11.53;72.09;100404.22;5019298;28;20029;-66
2023/10/18 11:22:56;;;;;;;12.63;8.25;;;;;;;11.58;71.80;100404.50;5016694;28;20036;-65
2023/10/18 11:25:30;;;;;;;11.75;8.07;;;;;;;11.65;72.34;100398.25;5022375;28;20026;-65
2023/10/18 11:28:00;;;;;;;10.30;7.65;;;;;;;11.75;71.99;100397.94;5011979;28;20034;-66
2023/10/18 11:30:26;;;;;;;12.20;7.90;;;;;;;11.83;71.60;100381.88;5011595;28;20029;-66
2023/10/18 11:32:54;;;;;;;10.75;7.70;;;;;;;11.90;71.17;100385.44;5013000;28;20038;-66
2023/10/18 11:35:46;;;;;;;16.17;8.05;;;;;;;11.99;71.01;100384.28;5025914;28;20042;-65
2023/10/18 11:38:13;;;;;;;13.02;7.90;;;;;;;12.02;71.32;100357.28;5011074;28;20782;-66
2023/10/18 11:40:43;;;;;;;14.98;8.05;;;;;;;12.18;70.98;100361.53;5014777;28;20029;-66
2023/10/18 11:43:09;;;;;;;18.33;8.52;;;;;;;12.26;70.76;100353.41;5014468;28;20044;-66
2023/10/18 11:45:38;;;;;;;13.18;8.00;;;;;;;12.35;71.18;100356.72;5018373;28;20021;-65
2023/10/18 11:48:09;;;;;;;12.82;8.02;;;;;;;12.39;70.31;100358.81;5017939;28;20168;-65
2023/10/18 11:50:48;;;;;;;11.02;7.75;;;;;;;12.48;70.49;100356.84;5017288;28;20034;-66
2023/10/18 11:53:15;;;;;;;13.18;7.93;;;;;;;12.55;70.55;100354.22;5030301;28;20072;-66
2023/10/18 11:55:55;;;;;;;12.75;7.00;;;;;;;12.62;69.56;100344.41;5018425;28;20053;-66
2023/10/18 11:58:24;;;;;;;12.60;7.60;;;;;;;12.63;69.30;100328.22;5021282;28;20163;-66
2023/10/18 12:00:56;;;;;;;13.18;7.88;;;;;;;12.70;68.86;100323.75;5014024;28;20542;-65
2023/10/18 12:03:23;;;;;;;11.73;7.65;;;;;;;12.71;68.59;100319.25;5015273;28;20083;-66
2023/10/18 12:05:49;;;;;;;10.48;7.20;;;;;;;12.80;68.61;100323.41;5028873;28;20029;-65
2023/10/18 12:08:16;;;;;;;12.10;7.78;;;;;;;12.78;69.35;100298.00;5027190;28;20026;-66
2023/10/18 12:10:41;;;;;;;11.25;7.80;;;;;;;12.89;68.61;100300.91;5021089;28;20040;-66
2023/10/18 12:13:07;;;;;;;11.40;7.93;;;;;;;12.92;68.14;100283.69;5020643;28;20205;-66
2023/10/18 12:15:34;;;;;;;13.48;7.20;;;;;;;12.90;68.05;100286.53;5023608;28;20017;-66
2023/10/18 12:18:05;;;;;;;12.10;7.43;;;;;;;12.96;67.88;100283.06;5015123;28;20079;-66
2023/10/18 12:20:35;;;;;;;11.60;7.40;;;;;;;13.04;67.86;100290.09;5021541;28;20077;-65
2023/10/18 12:23:02;;;;;;;11.43;7.78;;;;;;;13.10;67.80;100278.63;5015163;28;20430;-66
2023/10/18 12:25:28;;;;;;;12.75;7.72;;;;;;;13.21;68.05;100271.91;5020697;28;20168;-66